sensor_id;sensor_type;location;lat;lon;timestamp;pressure;altitude;pressure_sealevel;temperature;humidity
74346;BME280;62776;50.518;6.732;2023-08-01T00:00:28;95102.31;;;16.51;100.00
74346;BME280;62776;50.518;6.732;2023-08-01T00:03:17;95065.81;;;16.48;100.00
74346;BME280;62776;50.518;6.732;2023-08-01T00:06:10;95064.00;;;16.48;100.00
74346;BME280;62776;50.518;6.732;2023-08-01T00:08:58;95033.38;;;16.49;100.00
74346;BME280;62776;50.518;6.732;2023-08-01T00:11:51;95033.22;;;16.52;100.00
74346;BME280;62776;50.518;6.732;2023-08-01T00:14:37;95000.03;;;16.51;100.00
74346;BME280;62776;50.518;6.732;2023-08-01T00:17:24;95026.28;;;16.51;100.00
74346;BME280;62776;50.518;6.732;2023-08-01T00:20:12;95020.22;;;16.50;100.00
74346;BME280;62776;50.518;6.732;2023-08-01T00:22:59;95022.81;;;16.50;100.00
74346;BME280;62776;50.518;6.732;2023-08-01T00:25:45;95023.50;;;16.54;100.00
74346;BME280;62776;50.518;6.732;2023-08-01T00:28:39;95029.53;;;16.56;100.00
74346;BME280;62776;50.518;6.732;2023-08-01T00:31:27;95021.44;;;16.59;100.00
74346;BME280;62776;50.518;6.732;2023-08-01T00:34:15;95018.00;;;16.59;100.00
74346;BME280;62776;50.518;6.732;2023-08-01T00:37:02;95016.03;;;16.62;100.00
74346;BME280;62776;50.518;6.732;2023-08-01T00:39:50;95021.03;;;16.67;100.00
74346;BME280;62776;50.518;6.732;2023-08-01T00:42:37;95012.97;;;16.70;100.00
74346;BME280;62776;50.518;6.732;2023-08-01T00:45:33;95006.53;;;16.75;100.00
74346;BME280;62776;50.518;6.732;2023-08-01T00:48:38;95003.72;;;16.78;100.00
74346;BME280;62776;50.518;6.732;2023-08-01T00:51:25;95009.78;;;16.79;100.00
74346;BME280;62776;50.518;6.732;2023-08-01T00:54:12;95014.00;;;16.81;100.00
74346;BME280;62776;50.518;6.732;2023-08-01T00:56:59;95004.19;;;16.85;100.00
74346;BME280;62776;50.518;6.732;2023-08-01T00:59:46;95010.28;;;16.85;100.00
74346;BME280;62776;50.518;6.732;2023-08-01T01:02:36;95005.13;;;16.84;100.00
74346;BME280;62776;50.518;6.732;2023-08-01T01:05:25;94997.16;;;16.85;100.00
74346;BME280;62776;50.518;6.732;2023-08-01T01:08:12;94983.88;;;16.88;100.00
74346;BME280;62776;50.518;6.732;2023-08-01T01:10:59;94969.72;;;16.91;100.00
74346;BME280;62776;50.518;6.732;2023-08-01T01:13:47;94967.16;;;16.89;100.00
74346;BME280;62776;50.518;6.732;2023-08-01T01:16:33;94953.84;;;16.92;100.00
74346;BME280;62776;50.518;6.732;2023-08-01T01:19:25;94952.38;;;16.88;100.00
74346;BME280;62776;50.518;6.732;2023-08-01T01:22:14;94952.56;;;16.85;100.00
74346;BME280;62776;50.518;6.732;2023-08-01T01:25:10;94949.56;;;16.91;100.00
74346;BME280;62776;50.518;6.732;2023-08-01T01:28:06;94946.16;;;16.89;100.00
74346;BME280;62776;50.518;6.732;2023-08-01T01:30:53;94935.59;;;16.91;100.00
74346;BME280;62776;50.518;6.732;2023-08-01T01:33:51;94933.25;;;16.86;100.00
74346;BME280;62776;50.518;6.732;2023-08-01T01:36:37;94925.56;;;16.83;100.00
74346;BME280;62776;50.518;6.732;2023-08-01T01:39:32;94929.31;;;16.79;100.00
74346;BME280;62776;50.518;6.732;2023-08-01T01:42:19;94928.56;;;16.77;100.00
74346;BME280;62776;50.518;6.732;2023-08-01T01:45:08;94921.53;;;16.78;100.00
74346;BME280;62776;50.518;6.732;2023-08-01T01:47:55;94930.03;;;16.81;100.00
74346;BME280;62776;50.518;6.732;2023-08-01T01:50:43;94921.25;;;16.82;100.00
74346;BME280;62776;50.518;6.732;2023-08-01T01:53:29;94933.25;;;16.86;100.00
74346;BME280;62776;50.518;6.732;2023-08-01T01:56:15;94953.22;;;16.89;100.00
74346;BME280;62776;50.518;6.732;2023-08-01T01:59:02;94946.47;;;16.85;100.00
74346;BME280;62776;50.518;6.732;2023-08-01T02:01:49;94948.91;;;16.88;100.00
74346;BME280;62776;50.518;6.732;2023-08-01T02:04:41;94941.69;;;16.91;100.00
74346;BME280;62776;50.518;6.732;2023-08-01T02:07:27;94953.03;;;16.92;100.00
74346;BME280;62776;50.518;6.732;2023-08-01T02:10:14;94957.50;;;16.90;100.00
74346;BME280;62776;50.518;6.732;2023-08-01T02:13:02;94956.59;;;16.91;100.00
74346;BME280;62776;50.518;6.732;2023-08-01T02:15:48;94960.13;;;16.90;100.00
74346;BME280;62776;50.518;6.732;2023-08-01T02:18:34;94962.88;;;16.88;100.00
74346;BME280;62776;50.518;6.732;2023-08-01T02:21:26;94960.25;;;16.88;100.00
74346;BME280;62776;50.518;6.732;2023-08-01T02:24:13;94962.22;;;16.85;100.00
74346;BME280;62776;50.518;6.732;2023-08-01T02:27:00;94960.06;;;16.77;100.00
74346;BME280;62776;50.518;6.732;2023-08-01T02:29:47;94952.25;;;16.76;100.00
74346;BME280;62776;50.518;6.732;2023-08-01T02:32:35;94963.53;;;16.78;100.00
74346;BME280;62776;50.518;6.732;2023-08-01T02:35:23;94970.91;;;16.71;100.00
74346;BME280;62776;50.518;6.732;2023-08-01T02:38:10;94974.66;;;16.67;100.00
74346;BME280;62776;50.518;6.732;2023-08-01T02:40:56;94976.69;;;16.62;100.00
74346;BME280;62776;50.518;6.732;2023-08-01T02:43:43;94984.47;;;16.64;100.00
74346;BME280;62776;50.518;6.732;2023-08-01T02:46:30;94976.13;;;16.57;100.00
74346;BME280;62776;50.518;6.732;2023-08-01T02:49:23;94963.53;;;16.48;100.00
74346;BME280;62776;50.518;6.732;2023-08-01T02:52:09;94970.63;;;16.46;100.00
74346;BME280;62776;50.518;6.732;2023-08-01T02:54:56;94971.81;;;16.40;100.00
74346;BME280;62776;50.518;6.732;2023-08-01T02:57:42;94962.00;;;16.44;100.00
74346;BME280;62776;50.518;6.732;2023-08-01T03:00:28;94978.75;;;16.41;100.00
74346;BME280;62776;50.518;6.732;2023-08-01T03:03:15;95002.44;;;16.40;100.00
74346;BME280;62776;50.518;6.732;2023-08-01T03:06:01;94996.94;;;16.44;100.00
74346;BME280;62776;50.518;6.732;2023-08-01T03:08:48;94993.47;;;16.44;100.00
74346;BME280;62776;50.518;6.732;2023-08-01T03:11:35;94984.09;;;16.40;100.00
74346;BME280;62776;50.518;6.732;2023-08-01T03:14:23;94991.19;;;16.38;100.00
74346;BME280;62776;50.518;6.732;2023-08-01T03:17:09;94992.50;;;16.31;100.00
74346;BME280;62776;50.518;6.732;2023-08-01T03:19:55;94998.25;;;16.22;100.00
74346;BME280;62776;50.518;6.732;2023-08-01T03:22:42;95001.91;;;16.19;100.00
74346;BME280;62776;50.518;6.732;2023-08-01T03:25:28;95010.09;;;16.13;100.00
74346;BME280;62776;50.518;6.732;2023-08-01T03:28:14;95008.25;;;16.00;100.00
74346;BME280;62776;50.518;6.732;2023-08-01T03:31:02;95013.34;;;15.87;100.00
74346;BME280;62776;50.518;6.732;2023-08-01T03:33:48;95018.06;;;15.80;100.00
74346;BME280;62776;50.518;6.732;2023-08-01T03:36:38;95013.00;;;15.77;100.00
74346;BME280;62776;50.518;6.732;2023-08-01T03:39:25;95015.19;;;15.69;100.00
74346;BME280;62776;50.518;6.732;2023-08-01T03:42:19;95012.91;;;15.63;100.00
74346;BME280;62776;50.518;6.732;2023-08-01T03:45:09;95017.56;;;15.58;100.00
74346;BME280;62776;50.518;6.732;2023-08-01T03:47:57;95010.66;;;15.57;100.00
74346;BME280;62776;50.518;6.732;2023-08-01T03:50:44;95003.72;;;15.56;100.00
74346;BME280;62776;50.518;6.732;2023-08-01T03:53:37;95007.25;;;15.55;100.00
74346;BME280;62776;50.518;6.732;2023-08-01T03:56:24;95017.50;;;15.43;100.00
74346;BME280;62776;50.518;6.732;2023-08-01T03:59:12;95012.69;;;15.35;100.00
74346;BME280;62776;50.518;6.732;2023-08-01T04:01:59;95018.00;;;15.33;100.00
74346;BME280;62776;50.518;6.732;2023-08-01T04:04:45;95027.78;;;15.30;100.00
74346;BME280;62776;50.518;6.732;2023-08-01T04:07:35;95020.88;;;15.29;100.00
74346;BME280;62776;50.518;6.732;2023-08-01T04:10:28;95021.63;;;15.31;100.00
74346;BME280;62776;50.518;6.732;2023-08-01T04:13:15;95026.09;;;15.29;100.00
74346;BME280;62776;50.518;6.732;2023-08-01T04:16:01;95027.13;;;15.26;100.00
74346;BME280;62776;50.518;6.732;2023-08-01T04:18:49;95028.19;;;15.22;100.00
74346;BME280;62776;50.518;6.732;2023-08-01T04:21:36;95035.03;;;15.25;100.00
74346;BME280;62776;50.518;6.732;2023-08-01T04:24:30;95045.00;;;15.18;100.00
74346;BME280;62776;50.518;6.732;2023-08-01T04:27:18;95042.13;;;15.23;100.00
74346;BME280;62776;50.518;6.732;2023-08-01T04:30:07;95049.22;;;15.21;100.00
74346;BME280;62776;50.518;6.732;2023-08-01T04:32:55;95062.16;;;15.24;100.00
74346;BME280;62776;50.518;6.732;2023-08-01T04:35:42;95071.69;;;15.25;100.00
74346;BME280;62776;50.518;6.732;2023-08-01T04:38:28;95066.44;;;15.25;100.00
74346;BME280;62776;50.518;6.732;2023-08-01T04:41:15;95071.63;;;15.26;100.00
74346;BME280;62776;50.518;6.732;2023-08-01T04:44:03;95065.44;;;15.27;100.00
74346;BME280;62776;50.518;6.732;2023-08-01T04:46:52;95073.22;;;15.29;100.00
74346;BME280;62776;50.518;6.732;2023-08-01T04:49:40;95081.94;;;15.29;100.00
74346;BME280;62776;50.518;6.732;2023-08-01T04:52:27;95074.06;;;15.29;100.00
74346;BME280;62776;50.518;6.732;2023-08-01T04:55:14;95077.44;;;15.31;100.00
74346;BME280;62776;50.518;6.732;2023-08-01T04:58:02;95066.13;;;15.31;100.00
74346;BME280;62776;50.518;6.732;2023-08-01T05:00:56;95086.47;;;15.26;100.00
74346;BME280;62776;50.518;6.732;2023-08-01T05:03:48;95080.31;;;15.27;100.00
74346;BME280;62776;50.518;6.732;2023-08-01T05:06:36;95087.22;;;15.28;100.00
74346;BME280;62776;50.518;6.732;2023-08-01T05:09:23;95094.66;;;15.35;100.00
74346;BME280;62776;50.518;6.732;2023-08-01T05:12:11;95093.91;;;15.33;100.00
74346;BME280;62776;50.518;6.732;2023-08-01T05:15:04;95089.94;;;15.26;100.00
74346;BME280;62776;50.518;6.732;2023-08-01T05:17:50;95093.31;;;15.28;100.00
74346;BME280;62776;50.518;6.732;2023-08-01T05:20:38;95095.03;;;15.29;100.00
74346;BME280;62776;50.518;6.732;2023-08-01T05:23:27;95095.03;;;15.29;100.00
74346;BME280;62776;50.518;6.732;2023-08-01T05:26:14;95092.25;;;15.32;100.00
74346;BME280;62776;50.518;6.732;2023-08-01T05:29:07;95091.56;;;15.29;100.00
74346;BME280;62776;50.518;6.732;2023-08-01T05:31:53;95099.47;;;15.27;100.00
74346;BME280;62776;50.518;6.732;2023-08-01T05:34:41;95092.78;;;15.22;100.00
74346;BME280;62776;50.518;6.732;2023-08-01T05:37:27;95088.63;;;15.18;100.00
74346;BME280;62776;50.518;6.732;2023-08-01T05:40:16;95090.66;;;15.13;100.00
74346;BME280;62776;50.518;6.732;2023-08-01T05:43:02;95092.72;;;15.06;100.00
74346;BME280;62776;50.518;6.732;2023-08-01T05:45:50;95093.56;;;15.07;100.00
74346;BME280;62776;50.518;6.732;2023-08-01T05:48:38;95099.56;;;15.09;100.00
74346;BME280;62776;50.518;6.732;2023-08-01T05:51:24;95096.19;;;15.07;100.00
74346;BME280;62776;50.518;6.732;2023-08-01T05:54:11;95094.19;;;15.12;100.00
74346;BME280;62776;50.518;6.732;2023-08-01T05:57:01;95094.50;;;15.06;100.00
74346;BME280;62776;50.518;6.732;2023-08-01T05:59:49;95097.72;;;15.11;100.00
74346;BME280;62776;50.518;6.732;2023-08-01T06:02:35;95097.34;;;15.18;100.00
74346;BME280;62776;50.518;6.732;2023-08-01T06:05:21;95093.47;;;15.25;100.00
74346;BME280;62776;50.518;6.732;2023-08-01T06:08:11;95099.41;;;15.29;100.00
74346;BME280;62776;50.518;6.732;2023-08-01T06:11:00;95099.56;;;15.26;100.00
74346;BME280;62776;50.518;6.732;2023-08-01T06:13:46;95095.69;;;15.33;100.00
74346;BME280;62776;50.518;6.732;2023-08-01T06:16:34;95091.47;;;15.30;100.00
74346;BME280;62776;50.518;6.732;2023-08-01T06:19:21;95093.22;;;15.30;100.00
74346;BME280;62776;50.518;6.732;2023-08-01T06:22:09;95096.53;;;15.33;100.00
74346;BME280;62776;50.518;6.732;2023-08-01T06:25:02;95107.38;;;15.43;100.00
74346;BME280;62776;50.518;6.732;2023-08-01T06:27:48;95103.06;;;15.59;100.00
74346;BME280;62776;50.518;6.732;2023-08-01T06:30:36;95108.06;;;15.64;100.00
74346;BME280;62776;50.518;6.732;2023-08-01T06:33:29;95117.88;;;15.76;100.00
74346;BME280;62776;50.518;6.732;2023-08-01T06:36:14;95117.47;;;15.99;100.00
74346;BME280;62776;50.518;6.732;2023-08-01T06:39:02;95121.72;;;16.02;100.00
74346;BME280;62776;50.518;6.732;2023-08-01T06:44:25;95118.28;;;16.01;100.00
74346;BME280;62776;50.518;6.732;2023-08-01T06:47:13;95100.56;;;16.05;100.00
74346;BME280;62776;50.518;6.732;2023-08-01T06:50:03;95111.06;;;16.05;100.00
74346;BME280;62776;50.518;6.732;2023-08-01T06:52:49;95105.75;;;16.22;100.00
74346;BME280;62776;50.518;6.732;2023-08-01T06:55:35;95103.91;;;16.39;100.00
74346;BME280;62776;50.518;6.732;2023-08-01T07:02:09;95117.50;;;16.30;100.00
74346;BME280;62776;50.518;6.732;2023-08-01T07:04:59;95112.44;;;16.27;100.00
74346;BME280;62776;50.518;6.732;2023-08-01T07:07:44;95114.94;;;16.29;100.00
74346;BME280;62776;50.518;6.732;2023-08-01T07:10:30;95120.03;;;16.32;100.00
74346;BME280;62776;50.518;6.732;2023-08-01T07:13:37;95123.59;;;16.31;100.00
74346;BME280;62776;50.518;6.732;2023-08-01T07:16:27;95117.81;;;16.40;100.00
74346;BME280;62776;50.518;6.732;2023-08-01T07:19:32;95132.56;;;16.42;100.00
74346;BME280;62776;50.518;6.732;2023-08-01T07:22:23;95128.84;;;16.31;100.00
74346;BME280;62776;50.518;6.732;2023-08-01T07:25:10;95133.50;;;16.26;100.00
74346;BME280;62776;50.518;6.732;2023-08-01T07:28:00;95137.53;;;16.16;100.00
74346;BME280;62776;50.518;6.732;2023-08-01T07:30:48;95136.13;;;16.26;100.00
74346;BME280;62776;50.518;6.732;2023-08-01T07:33:47;95152.50;;;16.29;100.00
74346;BME280;62776;50.518;6.732;2023-08-01T07:36:36;95149.91;;;16.45;100.00
74346;BME280;62776;50.518;6.732;2023-08-01T07:39:23;95148.78;;;16.49;100.00
74346;BME280;62776;50.518;6.732;2023-08-01T07:42:09;95152.38;;;16.48;100.00
74346;BME280;62776;50.518;6.732;2023-08-01T07:44:56;95163.78;;;16.47;100.00
74346;BME280;62776;50.518;6.732;2023-08-01T07:47:49;95165.03;;;16.40;100.00
74346;BME280;62776;50.518;6.732;2023-08-01T07:50:42;95173.50;;;16.45;100.00
74346;BME280;62776;50.518;6.732;2023-08-01T07:53:29;95160.69;;;16.56;100.00
74346;BME280;62776;50.518;6.732;2023-08-01T07:56:18;95164.72;;;16.77;100.00
74346;BME280;62776;50.518;6.732;2023-08-01T07:59:10;95179.34;;;16.50;100.00
74346;BME280;62776;50.518;6.732;2023-08-01T08:01:57;95181.22;;;16.79;100.00
74346;BME280;62776;50.518;6.732;2023-08-01T08:04:43;95177.91;;;16.91;100.00
74346;BME280;62776;50.518;6.732;2023-08-01T08:07:30;95183.31;;;16.88;100.00
74346;BME280;62776;50.518;6.732;2023-08-01T08:10:16;95190.63;;;16.83;100.00
74346;BME280;62776;50.518;6.732;2023-08-01T08:13:02;95178.75;;;16.92;100.00
74346;BME280;62776;50.518;6.732;2023-08-01T08:15:56;95184.84;;;16.77;100.00
74346;BME280;62776;50.518;6.732;2023-08-01T08:18:43;95185.28;;;16.85;100.00
74346;BME280;62776;50.518;6.732;2023-08-01T08:21:29;95193.88;;;17.02;100.00
74346;BME280;62776;50.518;6.732;2023-08-01T08:24:15;95187.34;;;17.09;100.00
74346;BME280;62776;50.518;6.732;2023-08-01T08:27:05;95184.44;;;17.14;100.00
74346;BME280;62776;50.518;6.732;2023-08-01T08:29:51;95187.75;;;17.18;100.00
74346;BME280;62776;50.518;6.732;2023-08-01T08:32:37;95185.84;;;17.05;100.00
74346;BME280;62776;50.518;6.732;2023-08-01T08:35:24;95182.81;;;16.97;100.00
74346;BME280;62776;50.518;6.732;2023-08-01T08:38:10;95183.00;;;17.08;100.00
74346;BME280;62776;50.518;6.732;2023-08-01T08:41:11;95182.25;;;17.06;100.00
74346;BME280;62776;50.518;6.732;2023-08-01T08:44:00;95181.88;;;17.28;100.00
74346;BME280;62776;50.518;6.732;2023-08-01T08:46:51;95191.34;;;17.31;100.00
74346;BME280;62776;50.518;6.732;2023-08-01T08:49:47;95184.53;;;17.42;100.00
74346;BME280;62776;50.518;6.732;2023-08-01T08:52:36;95180.22;;;17.71;100.00
74346;BME280;62776;50.518;6.732;2023-08-01T08:55:23;95189.63;;;17.89;100.00
74346;BME280;62776;50.518;6.732;2023-08-01T08:58:12;95181.75;;;18.03;100.00
74346;BME280;62776;50.518;6.732;2023-08-01T09:01:02;95182.97;;;18.26;100.00
74346;BME280;62776;50.518;6.732;2023-08-01T09:03:51;95188.59;;;18.48;100.00
74346;BME280;62776;50.518;6.732;2023-08-01T09:06:46;95190.25;;;18.63;100.00
74346;BME280;62776;50.518;6.732;2023-08-01T09:09:35;95181.50;;;18.63;100.00
74346;BME280;62776;50.518;6.732;2023-08-01T09:12:21;95192.69;;;18.66;100.00
74346;BME280;62776;50.518;6.732;2023-08-01T09:15:14;95194.75;;;18.75;100.00
74346;BME280;62776;50.518;6.732;2023-08-01T09:18:06;95210.81;;;18.71;100.00
74346;BME280;62776;50.518;6.732;2023-08-01T09:20:54;95216.91;;;18.85;100.00
74346;BME280;62776;50.518;6.732;2023-08-01T09:23:40;95209.19;;;18.82;100.00
74346;BME280;62776;50.518;6.732;2023-08-01T09:26:32;95196.06;;;18.68;100.00
74346;BME280;62776;50.518;6.732;2023-08-01T09:29:21;95206.53;;;18.56;100.00
74346;BME280;62776;50.518;6.732;2023-08-01T09:32:14;95209.25;;;18.54;100.00
74346;BME280;62776;50.518;6.732;2023-08-01T09:35:01;95221.50;;;18.82;100.00
74346;BME280;62776;50.518;6.732;2023-08-01T09:37:47;95222.50;;;19.08;100.00
74346;BME280;62776;50.518;6.732;2023-08-01T09:40:37;95228.94;;;19.16;100.00
74346;BME280;62776;50.518;6.732;2023-08-01T09:43:24;95234.72;;;19.09;100.00
74346;BME280;62776;50.518;6.732;2023-08-01T09:46:12;95232.97;;;18.95;100.00
74346;BME280;62776;50.518;6.732;2023-08-01T09:49:10;95220.38;;;18.86;100.00
74346;BME280;62776;50.518;6.732;2023-08-01T09:51:58;95228.38;;;19.25;100.00
74346;BME280;62776;50.518;6.732;2023-08-01T09:54:47;95226.56;;;19.53;100.00
74346;BME280;62776;50.518;6.732;2023-08-01T09:57:35;95215.19;;;19.52;100.00
74346;BME280;62776;50.518;6.732;2023-08-01T10:00:25;95218.34;;;19.45;100.00
74346;BME280;62776;50.518;6.732;2023-08-01T10:03:11;95226.28;;;19.30;100.00
74346;BME280;62776;50.518;6.732;2023-08-01T10:06:00;95224.63;;;19.42;100.00
74346;BME280;62776;50.518;6.732;2023-08-01T10:08:47;95231.22;;;19.62;100.00
74346;BME280;62776;50.518;6.732;2023-08-01T10:11:35;95223.16;;;19.90;100.00
74346;BME280;62776;50.518;6.732;2023-08-01T10:14:23;95223.78;;;20.06;100.00
74346;BME280;62776;50.518;6.732;2023-08-01T10:17:11;95229.59;;;20.11;100.00
74346;BME280;62776;50.518;6.732;2023-08-01T10:20:01;95225.38;;;20.21;100.00
74346;BME280;62776;50.518;6.732;2023-08-01T10:22:52;95223.28;;;20.26;100.00
74346;BME280;62776;50.518;6.732;2023-08-01T10:25:41;95213.34;;;20.42;100.00
74346;BME280;62776;50.518;6.732;2023-08-01T10:28:32;95213.41;;;20.66;100.00
74346;BME280;62776;50.518;6.732;2023-08-01T10:31:24;95213.41;;;20.79;100.00
74346;BME280;62776;50.518;6.732;2023-08-01T10:34:14;95222.19;;;20.67;100.00
74346;BME280;62776;50.518;6.732;2023-08-01T10:37:01;95214.59;;;20.49;100.00
74346;BME280;62776;50.518;6.732;2023-08-01T10:39:57;95209.78;;;20.43;100.00
74346;BME280;62776;50.518;6.732;2023-08-01T10:42:45;95211.16;;;20.49;100.00
74346;BME280;62776;50.518;6.732;2023-08-01T10:45:32;95219.78;;;20.51;99.74
74346;BME280;62776;50.518;6.732;2023-08-01T10:48:18;95222.31;;;20.52;100.00
74346;BME280;62776;50.518;6.732;2023-08-01T10:51:04;95219.66;;;20.52;100.00
74346;BME280;62776;50.518;6.732;2023-08-01T10:53:54;95222.41;;;20.64;100.00
74346;BME280;62776;50.518;6.732;2023-08-01T10:56:45;95219.44;;;20.68;100.00
74346;BME280;62776;50.518;6.732;2023-08-01T10:59:39;95208.22;;;20.77;100.00
74346;BME280;62776;50.518;6.732;2023-08-01T11:02:30;95221.78;;;20.96;100.00
74346;BME280;62776;50.518;6.732;2023-08-01T11:05:16;95216.84;;;21.28;100.00
74346;BME280;62776;50.518;6.732;2023-08-01T11:08:04;95226.50;;;21.40;93.38
74346;BME280;62776;50.518;6.732;2023-08-01T11:10:53;95227.09;;;21.67;91.14
74346;BME280;62776;50.518;6.732;2023-08-01T11:13:39;95234.47;;;21.75;84.26
74346;BME280;62776;50.518;6.732;2023-08-01T11:16:28;95247.03;;;21.60;81.50
74346;BME280;62776;50.518;6.732;2023-08-01T11:19:28;95242.34;;;21.40;81.75
74346;BME280;62776;50.518;6.732;2023-08-01T11:22:14;95247.25;;;21.57;90.01
74346;BME280;62776;50.518;6.732;2023-08-01T11:25:01;95255.44;;;21.65;89.41
74346;BME280;62776;50.518;6.732;2023-08-01T11:27:48;95265.44;;;21.38;89.47
74346;BME280;62776;50.518;6.732;2023-08-01T11:30:37;95276.19;;;20.99;100.00
74346;BME280;62776;50.518;6.732;2023-08-01T11:33:24;95280.28;;;20.67;100.00
74346;BME280;62776;50.518;6.732;2023-08-01T11:36:13;95289.78;;;20.19;100.00
74346;BME280;62776;50.518;6.732;2023-08-01T11:39:01;95285.47;;;19.78;100.00
74346;BME280;62776;50.518;6.732;2023-08-01T11:41:51;95279.28;;;19.53;100.00
74346;BME280;62776;50.518;6.732;2023-08-01T11:44:38;95272.50;;;19.49;100.00
74346;BME280;62776;50.518;6.732;2023-08-01T11:47:25;95277.25;;;19.43;100.00
74346;BME280;62776;50.518;6.732;2023-08-01T11:50:22;95273.66;;;19.71;100.00
74346;BME280;62776;50.518;6.732;2023-08-01T11:57:14;95280.03;;;20.19;100.00
74346;BME280;62776;50.518;6.732;2023-08-01T12:00:06;95284.06;;;20.25;100.00
74346;BME280;62776;50.518;6.732;2023-08-01T12:03:17;95285.75;;;20.13;100.00
74346;BME280;62776;50.518;6.732;2023-08-01T12:07:17;95280.25;;;20.16;100.00
74346;BME280;62776;50.518;6.732;2023-08-01T12:10:04;95270.34;;;20.57;100.00
74346;BME280;62776;50.518;6.732;2023-08-01T12:19:09;95277.28;;;21.56;93.75
74346;BME280;62776;50.518;6.732;2023-08-01T12:21:55;95279.66;;;21.72;90.84
74346;BME280;62776;50.518;6.732;2023-08-01T12:28:04;95278.44;;;21.89;94.27
74346;BME280;62776;50.518;6.732;2023-08-01T12:30:40;95282.53;;;21.69;90.04
74346;BME280;62776;50.518;6.732;2023-08-01T12:33:37;95303.31;;;21.26;100.00
74346;BME280;62776;50.518;6.732;2023-08-01T12:36:12;95301.19;;;20.70;100.00
74346;BME280;62776;50.518;6.732;2023-08-01T12:39:02;95310.38;;;19.87;100.00
74346;BME280;62776;50.518;6.732;2023-08-01T12:41:56;95311.25;;;20.00;100.00
74346;BME280;62776;50.518;6.732;2023-08-01T12:44:56;95312.41;;;19.96;100.00
74346;BME280;62776;50.518;6.732;2023-08-01T12:47:43;95310.28;;;19.88;100.00
74346;BME280;62776;50.518;6.732;2023-08-01T12:51:04;95304.88;;;19.77;100.00
74346;BME280;62776;50.518;6.732;2023-08-01T12:53:48;95311.25;;;20.00;100.00
74346;BME280;62776;50.518;6.732;2023-08-01T12:56:34;95300.28;;;19.93;100.00
74346;BME280;62776;50.518;6.732;2023-08-01T12:59:23;95307.53;;;19.90;100.00
74346;BME280;62776;50.518;6.732;2023-08-01T13:02:09;95298.78;;;19.89;100.00
74346;BME280;62776;50.518;6.732;2023-08-01T13:04:55;95296.66;;;19.94;100.00
74346;BME280;62776;50.518;6.732;2023-08-01T13:07:43;95296.72;;;20.07;100.00
74346;BME280;62776;50.518;6.732;2023-08-01T13:10:33;95303.31;;;20.27;100.00
74346;BME280;62776;50.518;6.732;2023-08-01T13:13:21;95303.31;;;20.39;100.00
74346;BME280;62776;50.518;6.732;2023-08-01T13:16:09;95303.84;;;20.44;100.00
74346;BME280;62776;50.518;6.732;2023-08-01T13:18:57;95302.47;;;20.51;100.00
74346;BME280;62776;50.518;6.732;2023-08-01T13:21:46;95302.25;;;20.42;100.00
74346;BME280;62776;50.518;6.732;2023-08-01T13:24:38;95300.78;;;20.38;100.00
74346;BME280;62776;50.518;6.732;2023-08-01T13:27:26;95298.63;;;20.18;100.00
74346;BME280;62776;50.518;6.732;2023-08-01T13:30:15;95312.81;;;20.54;100.00
74346;BME280;62776;50.518;6.732;2023-08-01T13:33:03;95311.66;;;20.58;100.00
74346;BME280;62776;50.518;6.732;2023-08-01T13:35:52;95305.50;;;20.58;100.00
74346;BME280;62776;50.518;6.732;2023-08-01T13:38:39;95314.50;;;20.68;100.00
74346;BME280;62776;50.518;6.732;2023-08-01T13:41:27;95320.09;;;20.51;95.12
74346;BME280;62776;50.518;6.732;2023-08-01T13:44:13;95316.59;;;20.25;95.87
74346;BME280;62776;50.518;6.732;2023-08-01T13:46:59;95323.94;;;20.20;100.00
74346;BME280;62776;50.518;6.732;2023-08-01T13:49:54;95327.59;;;20.44;98.06
74346;BME280;62776;50.518;6.732;2023-08-01T13:52:43;95329.28;;;20.45;97.52
74346;BME280;62776;50.518;6.732;2023-08-01T13:55:29;95351.44;;;20.30;99.87
74346;BME280;62776;50.518;6.732;2023-08-01T13:58:18;95353.78;;;20.08;100.00
74346;BME280;62776;50.518;6.732;2023-08-01T14:01:07;95345.09;;;19.40;100.00
74346;BME280;62776;50.518;6.732;2023-08-01T14:03:53;95342.44;;;18.85;100.00
74346;BME280;62776;50.518;6.732;2023-08-01T14:06:45;95349.31;;;18.59;100.00
74346;BME280;62776;50.518;6.732;2023-08-01T14:09:31;95338.75;;;18.45;100.00
74346;BME280;62776;50.518;6.732;2023-08-01T14:12:18;95346.72;;;18.44;100.00
74346;BME280;62776;50.518;6.732;2023-08-01T14:15:06;95350.13;;;18.46;100.00
74346;BME280;62776;50.518;6.732;2023-08-01T14:17:56;95346.03;;;18.70;100.00
74346;BME280;62776;50.518;6.732;2023-08-01T14:20:43;95335.97;;;19.31;100.00
74346;BME280;62776;50.518;6.732;2023-08-01T14:23:40;95336.94;;;19.45;100.00
74346;BME280;62776;50.518;6.732;2023-08-01T14:26:29;95342.56;;;19.53;100.00
74346;BME280;62776;50.518;6.732;2023-08-01T14:29:18;95331.03;;;19.54;100.00
74346;BME280;62776;50.518;6.732;2023-08-01T14:32:09;95347.75;;;19.93;100.00
74346;BME280;62776;50.518;6.732;2023-08-01T14:34:57;95346.56;;;21.85;100.00
74346;BME280;62776;50.518;6.732;2023-08-01T14:37:43;95330.97;;;23.63;99.18
74346;BME280;62776;50.518;6.732;2023-08-01T14:40:34;95336.94;;;24.71;84.49
74346;BME280;62776;50.518;6.732;2023-08-01T14:43:29;95329.00;;;25.41;73.90
74346;BME280;62776;50.518;6.732;2023-08-01T14:46:16;95325.09;;;25.95;66.73
74346;BME280;62776;50.518;6.732;2023-08-01T14:49:05;95337.47;;;24.13;70.18
74346;BME280;62776;50.518;6.732;2023-08-01T14:51:51;95349.22;;;22.89;78.17
74346;BME280;62776;50.518;6.732;2023-08-01T14:54:37;95346.59;;;22.20;79.55
74346;BME280;62776;50.518;6.732;2023-08-01T14:57:25;95343.31;;;23.08;77.45
74346;BME280;62776;50.518;6.732;2023-08-01T15:00:13;95334.53;;;24.89;65.78
74346;BME280;62776;50.518;6.732;2023-08-01T15:03:00;95342.50;;;26.37;56.67